sensor_id;sensor_type;location;lat;lon;timestamp;pressure;altitude;pressure_sealevel;temperature;humidity
19884;BME280;10104;50.732;10.174;2023-05-23T00:01:42;97579.78;;;18.09;92.59
19884;BME280;10104;50.732;10.174;2023-05-23T00:04:05;97581.44;;;18.10;92.04
19884;BME280;10104;50.732;10.174;2023-05-23T00:06:27;97582.75;;;18.08;92.43
19884;BME280;10104;50.732;10.174;2023-05-23T00:08:49;97588.72;;;17.98;93.17
19884;BME280;10104;50.732;10.174;2023-05-23T00:11:11;97588.97;;;17.97;92.76
19884;BME280;10104;50.732;10.174;2023-05-23T00:13:33;97593.63;;;18.01;92.57
19884;BME280;10104;50.732;10.174;2023-05-23T00:15:56;97596.31;;;18.01;92.17
19884;BME280;10104;50.732;10.174;2023-05-23T00:18:17;97596.47;;;17.95;93.02
19884;BME280;10104;50.732;10.174;2023-05-23T00:20:40;97600.41;;;17.92;92.88
19884;BME280;10104;50.732;10.174;2023-05-23T00:23:03;97599.69;;;17.97;92.58
19884;BME280;10104;50.732;10.174;2023-05-23T00:25:24;97598.97;;;18.01;91.90
19884;BME280;10104;50.732;10.174;2023-05-23T00:27:46;97600.84;;;18.01;91.53
19884;BME280;10104;50.732;10.174;2023-05-23T00:30:08;97602.94;;;17.99;92.60
19884;BME280;10104;50.732;10.174;2023-05-23T00:32:29;97607.34;;;18.05;92.01
19884;BME280;10104;50.732;10.174;2023-05-23T00:34:51;97611.06;;;18.04;92.13
19884;BME280;10104;50.732;10.174;2023-05-23T00:37:14;97610.25;;;18.03;91.82
19884;BME280;10104;50.732;10.174;2023-05-23T00:39:36;97614.91;;;18.08;92.08
19884;BME280;10104;50.732;10.174;2023-05-23T00:41:58;97617.97;;;18.00;94.09
19884;BME280;10104;50.732;10.174;2023-05-23T00:44:19;97618.72;;;17.95;94.71
19884;BME280;10104;50.732;10.174;2023-05-23T00:46:43;97626.63;;;17.90;94.94
19884;BME280;10104;50.732;10.174;2023-05-23T00:49:06;97621.19;;;17.85;95.41
19884;BME280;10104;50.732;10.174;2023-05-23T00:51:28;97627.72;;;17.89;95.66
19884;BME280;10104;50.732;10.174;2023-05-23T00:53:49;97626.47;;;17.97;94.56
19884;BME280;10104;50.732;10.174;2023-05-23T00:56:11;97627.34;;;17.86;95.29
19884;BME280;10104;50.732;10.174;2023-05-23T00:58:32;97624.88;;;17.96;94.42
19884;BME280;10104;50.732;10.174;2023-05-23T01:00:54;97625.13;;;17.94;94.15
19884;BME280;10104;50.732;10.174;2023-05-23T01:03:16;97623.25;;;17.95;93.65
19884;BME280;10104;50.732;10.174;2023-05-23T01:05:39;97625.44;;;17.98;93.58
19884;BME280;10104;50.732;10.174;2023-05-23T01:08:01;97627.84;;;17.83;95.96
19884;BME280;10104;50.732;10.174;2023-05-23T01:10:28;97629.88;;;17.75;95.62
19884;BME280;10104;50.732;10.174;2023-05-23T01:15:51;97635.38;;;17.86;94.37
19884;BME280;10104;50.732;10.174;2023-05-23T01:18:20;97638.81;;;17.81;94.92
19884;BME280;10104;50.732;10.174;2023-05-23T01:20:48;97636.78;;;17.88;94.27
19884;BME280;10104;50.732;10.174;2023-05-23T01:26:30;97642.28;;;17.82;94.95
19884;BME280;10104;50.732;10.174;2023-05-23T01:29:00;97636.34;;;17.79;95.13
19884;BME280;10104;50.732;10.174;2023-05-23T01:31:26;97637.03;;;17.87;94.67
19884;BME280;10104;50.732;10.174;2023-05-23T01:33:50;97641.63;;;17.74;97.25
19884;BME280;10104;50.732;10.174;2023-05-23T01:36:14;97634.84;;;17.84;95.48
19884;BME280;10104;50.732;10.174;2023-05-23T01:38:35;97631.19;;;17.90;95.12
19884;BME280;10104;50.732;10.174;2023-05-23T01:40:57;97638.75;;;17.64;98.89
19884;BME280;10104;50.732;10.174;2023-05-23T01:43:19;97634.88;;;17.72;97.33
19884;BME280;10104;50.732;10.174;2023-05-23T01:45:41;97635.31;;;17.81;95.85
19884;BME280;10104;50.732;10.174;2023-05-23T01:48:04;97626.41;;;17.92;95.37
19884;BME280;10104;50.732;10.174;2023-05-23T01:50:27;97629.47;;;17.84;95.92
19884;BME280;10104;50.732;10.174;2023-05-23T01:52:49;97624.81;;;17.79;95.94
19884;BME280;10104;50.732;10.174;2023-05-23T01:55:13;97627.94;;;17.88;95.02
19884;BME280;10104;50.732;10.174;2023-05-23T01:57:36;97630.94;;;17.91;94.57
19884;BME280;10104;50.732;10.174;2023-05-23T01:59:58;97632.66;;;17.97;94.00
19884;BME280;10104;50.732;10.174;2023-05-23T02:02:20;97627.78;;;17.94;93.87
19884;BME280;10104;50.732;10.174;2023-05-23T02:04:41;97636.28;;;17.91;93.96
19884;BME280;10104;50.732;10.174;2023-05-23T02:07:03;97629.06;;;17.92;93.79
19884;BME280;10104;50.732;10.174;2023-05-23T02:09:24;97629.72;;;17.82;94.37
19884;BME280;10104;50.732;10.174;2023-05-23T02:11:46;97635.63;;;17.84;94.30
19884;BME280;10104;50.732;10.174;2023-05-23T02:14:08;97634.34;;;17.87;93.89
19884;BME280;10104;50.732;10.174;2023-05-23T02:16:29;97642.63;;;17.85;94.20
19884;BME280;10104;50.732;10.174;2023-05-23T02:18:51;97641.13;;;17.77;94.97
19884;BME280;10104;50.732;10.174;2023-05-23T02:21:16;97635.88;;;17.83;94.15
19884;BME280;10104;50.732;10.174;2023-05-23T02:23:38;97646.41;;;17.72;97.27
19884;BME280;10104;50.732;10.174;2023-05-23T02:25:59;97640.81;;;17.74;96.40
19884;BME280;10104;50.732;10.174;2023-05-23T02:28:21;97634.50;;;17.80;95.33
19884;BME280;10104;50.732;10.174;2023-05-23T02:30:42;97632.72;;;17.86;94.74
19884;BME280;10104;50.732;10.174;2023-05-23T02:33:05;97638.41;;;17.89;94.54
19884;BME280;10104;50.732;10.174;2023-05-23T02:35:27;97644.09;;;17.93;94.29
19884;BME280;10104;50.732;10.174;2023-05-23T02:37:48;97642.09;;;18.00;93.92
19884;BME280;10104;50.732;10.174;2023-05-23T02:40:10;97651.66;;;17.96;94.35
19884;BME280;10104;50.732;10.174;2023-05-23T02:42:32;97655.41;;;17.95;94.33
19884;BME280;10104;50.732;10.174;2023-05-23T02:44:53;97652.22;;;17.98;94.39
19884;BME280;10104;50.732;10.174;2023-05-23T02:47:15;97649.41;;;18.04;93.90
19884;BME280;10104;50.732;10.174;2023-05-23T02:49:36;97652.88;;;18.05;93.73
19884;BME280;10104;50.732;10.174;2023-05-23T02:51:58;97656.63;;;18.04;93.78
19884;BME280;10104;50.732;10.174;2023-05-23T02:54:19;97655.56;;;18.05;93.91
19884;BME280;10104;50.732;10.174;2023-05-23T02:56:41;97658.06;;;17.95;96.10
19884;BME280;10104;50.732;10.174;2023-05-23T02:59:02;97659.94;;;17.94;96.46
19884;BME280;10104;50.732;10.174;2023-05-23T03:01:24;97660.25;;;17.98;95.50
19884;BME280;10104;50.732;10.174;2023-05-23T03:03:45;97661.06;;;17.98;95.08
19884;BME280;10104;50.732;10.174;2023-05-23T03:06:07;97661.16;;;18.03;94.69
19884;BME280;10104;50.732;10.174;2023-05-23T03:08:31;97662.31;;;18.07;94.51
19884;BME280;10104;50.732;10.174;2023-05-23T03:10:52;97652.41;;;18.08;94.26
19884;BME280;10104;50.732;10.174;2023-05-23T03:13:14;97655.34;;;18.06;95.14
19884;BME280;10104;50.732;10.174;2023-05-23T03:15:36;97657.13;;;18.01;97.38
19884;BME280;10104;50.732;10.174;2023-05-23T03:17:58;97655.25;;;18.01;96.16
19884;BME280;10104;50.732;10.174;2023-05-23T03:20:20;97660.50;;;17.96;96.60
19884;BME280;10104;50.732;10.174;2023-05-23T03:22:41;97651.91;;;17.94;97.21
19884;BME280;10104;50.732;10.174;2023-05-23T03:25:06;97652.44;;;17.96;97.71
19884;BME280;10104;50.732;10.174;2023-05-23T03:27:28;97657.19;;;18.06;96.60
19884;BME280;10104;50.732;10.174;2023-05-23T03:29:49;97657.50;;;18.09;96.26
19884;BME280;10104;50.732;10.174;2023-05-23T03:32:11;97651.69;;;18.12;96.21
19884;BME280;10104;50.732;10.174;2023-05-23T03:34:33;97656.31;;;18.17;95.81
19884;BME280;10104;50.732;10.174;2023-05-23T03:36:56;97659.06;;;18.22;95.35
19884;BME280;10104;50.732;10.174;2023-05-23T03:39:18;97655.41;;;18.28;94.99
19884;BME280;10104;50.732;10.174;2023-05-23T03:41:40;97659.06;;;18.05;97.96
19884;BME280;10104;50.732;10.174;2023-05-23T03:44:02;97664.94;;;17.91;99.75
19884;BME280;10104;50.732;10.174;2023-05-23T03:46:24;97673.28;;;17.77;100.00
19884;BME280;10104;50.732;10.174;2023-05-23T03:48:46;97660.56;;;17.85;99.59
19884;BME280;10104;50.732;10.174;2023-05-23T03:51:07;97676.16;;;17.88;99.75
19884;BME280;10104;50.732;10.174;2023-05-23T03:53:29;97667.75;;;17.96;98.50
19884;BME280;10104;50.732;10.174;2023-05-23T03:55:50;97665.25;;;18.06;97.77
19884;BME280;10104;50.732;10.174;2023-05-23T03:58:14;97670.75;;;18.16;97.23
19884;BME280;10104;50.732;10.174;2023-05-23T04:00:36;97680.34;;;18.12;98.42
19884;BME280;10104;50.732;10.174;2023-05-23T04:02:57;97678.78;;;17.99;99.98
19884;BME280;10104;50.732;10.174;2023-05-23T04:05:19;97673.94;;;17.85;100.00
19884;BME280;10104;50.732;10.174;2023-05-23T04:07:41;97679.50;;;17.66;100.00
19884;BME280;10104;50.732;10.174;2023-05-23T04:10:04;97684.63;;;17.56;100.00
19884;BME280;10104;50.732;10.174;2023-05-23T04:12:26;97687.66;;;17.48;100.00
19884;BME280;10104;50.732;10.174;2023-05-23T04:14:47;97693.41;;;17.40;100.00
19884;BME280;10104;50.732;10.174;2023-05-23T04:17:10;97695.78;;;17.13;100.00
19884;BME280;10104;50.732;10.174;2023-05-23T04:19:32;97701.94;;;17.02;100.00
19884;BME280;10104;50.732;10.174;2023-05-23T04:21:54;97705.69;;;16.78;100.00
19884;BME280;10104;50.732;10.174;2023-05-23T04:24:15;97710.88;;;16.61;100.00
19884;BME280;10104;50.732;10.174;2023-05-23T04:26:37;97715.72;;;16.52;100.00
19884;BME280;10104;50.732;10.174;2023-05-23T04:28:59;97720.13;;;16.47;100.00
19884;BME280;10104;50.732;10.174;2023-05-23T04:31:22;97721.31;;;16.51;100.00
19884;BME280;10104;50.732;10.174;2023-05-23T04:33:43;97729.44;;;16.56;100.00
19884;BME280;10104;50.732;10.174;2023-05-23T04:36:06;97728.50;;;16.50;99.07
19884;BME280;10104;50.732;10.174;2023-05-23T04:38:30;97725.59;;;16.40;98.86
19884;BME280;10104;50.732;10.174;2023-05-23T04:40:53;97741.94;;;16.32;98.34
19884;BME280;10104;50.732;10.174;2023-05-23T04:43:14;97732.63;;;16.23;98.89
19884;BME280;10104;50.732;10.174;2023-05-23T04:45:36;97734.94;;;16.19;98.85
19884;BME280;10104;50.732;10.174;2023-05-23T04:47:58;97733.50;;;16.17;99.26
19884;BME280;10104;50.732;10.174;2023-05-23T04:50:19;97742.44;;;16.11;100.00
19884;BME280;10104;50.732;10.174;2023-05-23T04:52:43;97744.78;;;16.19;98.41
19884;BME280;10104;50.732;10.174;2023-05-23T04:55:04;97741.34;;;16.30;99.25
19884;BME280;10104;50.732;10.174;2023-05-23T04:57:27;97755.63;;;16.24;100.00
19884;BME280;10104;50.732;10.174;2023-05-23T04:59:48;97757.03;;;16.27;100.00
19884;BME280;10104;50.732;10.174;2023-05-23T05:02:10;97754.69;;;16.30;100.00
19884;BME280;10104;50.732;10.174;2023-05-23T05:04:32;97753.53;;;16.26;100.00
19884;BME280;10104;50.732;10.174;2023-05-23T05:06:53;97756.47;;;16.36;100.00
19884;BME280;10104;50.732;10.174;2023-05-23T05:09:15;97763.94;;;16.46;99.18
19884;BME280;10104;50.732;10.174;2023-05-23T05:11:36;97767.56;;;16.51;98.81
19884;BME280;10104;50.732;10.174;2023-05-23T05:13:58;97766.53;;;16.52;97.22
19884;BME280;10104;50.732;10.174;2023-05-23T05:16:20;97767.44;;;16.46;96.98
19884;BME280;10104;50.732;10.174;2023-05-23T05:18:42;97767.56;;;16.51;96.75
19884;BME280;10104;50.732;10.174;2023-05-23T05:21:03;97761.19;;;16.52;95.47
19884;BME280;10104;50.732;10.174;2023-05-23T05:23:25;97764.34;;;16.61;93.49
19884;BME280;10104;50.732;10.174;2023-05-23T05:25:50;97762.22;;;16.51;95.20
19884;BME280;10104;50.732;10.174;2023-05-23T05:28:12;97764.28;;;16.49;95.63
19884;BME280;10104;50.732;10.174;2023-05-23T05:30:34;97765.44;;;16.42;95.94
19884;BME280;10104;50.732;10.174;2023-05-23T05:32:55;97762.00;;;16.53;95.89
19884;BME280;10104;50.732;10.174;2023-05-23T05:35:18;97772.00;;;16.57;95.59
19884;BME280;10104;50.732;10.174;2023-05-23T05:37:40;97769.09;;;16.59;94.38
19884;BME280;10104;50.732;10.174;2023-05-23T05:40:01;97777.44;;;16.51;96.42
19884;BME280;10104;50.732;10.174;2023-05-23T05:42:27;97768.00;;;16.48;95.79
19884;BME280;10104;50.732;10.174;2023-05-23T05:44:48;97776.72;;;16.44;95.81
19884;BME280;10104;50.732;10.174;2023-05-23T05:47:10;97771.97;;;16.46;96.67
19884;BME280;10104;50.732;10.174;2023-05-23T05:49:31;97774.94;;;16.38;97.06
19884;BME280;10104;50.732;10.174;2023-05-23T05:51:53;97774.03;;;16.44;98.09
19884;BME280;10104;50.732;10.174;2023-05-23T05:54:14;97779.94;;;16.64;95.86
19884;BME280;10104;50.732;10.174;2023-05-23T05:56:39;97782.69;;;16.57;94.49
19884;BME280;10104;50.732;10.174;2023-05-23T05:59:02;97789.34;;;16.37;94.87
19884;BME280;10104;50.732;10.174;2023-05-23T06:01:23;97789.38;;;16.48;95.44
19884;BME280;10104;50.732;10.174;2023-05-23T06:03:45;97798.56;;;16.41;95.60
19884;BME280;10104;50.732;10.174;2023-05-23T06:06:07;97792.97;;;16.42;95.74
19884;BME280;10104;50.732;10.174;2023-05-23T06:08:29;97805.72;;;16.29;96.22
19884;BME280;10104;50.732;10.174;2023-05-23T06:10:50;97792.38;;;16.29;95.58
19884;BME280;10104;50.732;10.174;2023-05-23T06:13:12;97793.03;;;16.24;96.79
19884;BME280;10104;50.732;10.174;2023-05-23T06:15:33;97791.94;;;16.13;96.63
19884;BME280;10104;50.732;10.174;2023-05-23T06:17:55;97793.44;;;16.09;96.52
19884;BME280;10104;50.732;10.174;2023-05-23T06:20:17;97787.63;;;16.12;97.20
19884;BME280;10104;50.732;10.174;2023-05-23T06:22:38;97792.75;;;16.14;97.21
19884;BME280;10104;50.732;10.174;2023-05-23T06:25:00;97793.56;;;16.14;95.14
19884;BME280;10104;50.732;10.174;2023-05-23T06:27:21;97791.34;;;16.11;95.32
19884;BME280;10104;50.732;10.174;2023-05-23T06:29:43;97787.81;;;15.99;97.73
19884;BME280;10104;50.732;10.174;2023-05-23T06:32:05;97788.91;;;16.10;98.02
19884;BME280;10104;50.732;10.174;2023-05-23T06:34:26;97798.53;;;16.11;98.00
19884;BME280;10104;50.732;10.174;2023-05-23T06:36:48;97799.88;;;16.20;98.35
19884;BME280;10104;50.732;10.174;2023-05-23T06:39:10;97801.47;;;16.39;97.33
19884;BME280;10104;50.732;10.174;2023-05-23T06:41:31;97803.34;;;16.50;96.61
19884;BME280;10104;50.732;10.174;2023-05-23T06:43:52;97795.38;;;16.62;95.80
19884;BME280;10104;50.732;10.174;2023-05-23T06:46:14;97802.59;;;16.62;95.38
19884;BME280;10104;50.732;10.174;2023-05-23T06:48:36;97791.25;;;16.78;94.14
19884;BME280;10104;50.732;10.174;2023-05-23T06:50:57;97786.84;;;16.95;88.82
19884;BME280;10104;50.732;10.174;2023-05-23T06:53:19;97779.97;;;16.99;87.15
19884;BME280;10104;50.732;10.174;2023-05-23T06:55:40;97783.03;;;17.26;87.83
19884;BME280;10104;50.732;10.174;2023-05-23T06:58:02;97780.34;;;17.61;85.34
19884;BME280;10104;50.732;10.174;2023-05-23T07:00:24;97778.75;;;18.00;82.94
19884;BME280;10104;50.732;10.174;2023-05-23T07:02:46;97778.69;;;18.40;79.79
19884;BME280;10104;50.732;10.174;2023-05-23T07:05:11;97781.69;;;18.55;80.40
19884;BME280;10104;50.732;10.174;2023-05-23T07:07:33;97786.00;;;18.73;75.81
19884;BME280;10104;50.732;10.174;2023-05-23T07:09:54;97783.31;;;18.89;75.69
19884;BME280;10104;50.732;10.174;2023-05-23T07:12:16;97790.66;;;18.94;76.63
19884;BME280;10104;50.732;10.174;2023-05-23T07:14:37;97796.50;;;19.08;78.28
19884;BME280;10104;50.732;10.174;2023-05-23T07:16:59;97788.69;;;18.89;75.70
19884;BME280;10104;50.732;10.174;2023-05-23T07:19:21;97788.09;;;19.21;74.74
19884;BME280;10104;50.732;10.174;2023-05-23T07:21:42;97790.69;;;19.32;76.85
19884;BME280;10104;50.732;10.174;2023-05-23T07:24:04;97791.94;;;19.08;74.44
19884;BME280;10104;50.732;10.174;2023-05-23T07:26:26;97780.25;;;18.81;75.12
19884;BME280;10104;50.732;10.174;2023-05-23T07:28:47;97795.19;;;18.48;75.63
19884;BME280;10104;50.732;10.174;2023-05-23T07:31:09;97788.88;;;18.54;76.77
19884;BME280;10104;50.732;10.174;2023-05-23T07:33:32;97794.75;;;18.51;79.56
19884;BME280;10104;50.732;10.174;2023-05-23T07:35:54;97803.34;;;18.53;78.35
19884;BME280;10104;50.732;10.174;2023-05-23T07:38:16;97800.31;;;18.62;79.67
19884;BME280;10104;50.732;10.174;2023-05-23T07:40:37;97796.91;;;18.54;76.34
19884;BME280;10104;50.732;10.174;2023-05-23T07:43:00;97793.47;;;18.71;78.05
19884;BME280;10104;50.732;10.174;2023-05-23T07:45:22;97789.66;;;18.67;77.69
19884;BME280;10104;50.732;10.174;2023-05-23T07:47:43;97789.59;;;18.78;76.24
19884;BME280;10104;50.732;10.174;2023-05-23T07:50:06;97796.25;;;18.76;78.24
19884;BME280;10104;50.732;10.174;2023-05-23T07:52:31;97795.09;;;18.72;75.91
19884;BME280;10104;50.732;10.174;2023-05-23T07:54:52;97797.88;;;18.77;78.06
19884;BME280;10104;50.732;10.174;2023-05-23T07:57:14;97807.03;;;18.64;79.20
19884;BME280;10104;50.732;10.174;2023-05-23T07:59:37;97811.59;;;18.35;78.44
19884;BME280;10104;50.732;10.174;2023-05-23T08:01:58;97807.13;;;18.12;79.91
19884;BME280;10104;50.732;10.174;2023-05-23T08:04:20;97809.13;;;18.05;80.46
19884;BME280;10104;50.732;10.174;2023-05-23T08:06:42;97809.06;;;17.89;82.55
19884;BME280;10104;50.732;10.174;2023-05-23T08:09:23;97813.25;;;17.85;83.35
19884;BME280;10104;50.732;10.174;2023-05-23T08:11:44;97812.78;;;17.88;83.37
19884;BME280;10104;50.732;10.174;2023-05-23T08:14:06;97813.84;;;17.87;84.03
19884;BME280;10104;50.732;10.174;2023-05-23T08:16:27;97818.16;;;17.88;83.43
19884;BME280;10104;50.732;10.174;2023-05-23T08:18:49;97816.44;;;18.10;82.24
19884;BME280;10104;50.732;10.174;2023-05-23T08:21:11;97823.22;;;18.12;82.82
19884;BME280;10104;50.732;10.174;2023-05-23T08:23:32;97815.03;;;18.19;81.04
19884;BME280;10104;50.732;10.174;2023-05-23T08:25:54;97823.88;;;18.19;80.65
19884;BME280;10104;50.732;10.174;2023-05-23T08:28:16;97829.16;;;18.03;81.93
19884;BME280;10104;50.732;10.174;2023-05-23T08:30:37;97833.16;;;18.00;82.52
19884;BME280;10104;50.732;10.174;2023-05-23T08:32:59;97822.25;;;18.18;83.18
19884;BME280;10104;50.732;10.174;2023-05-23T08:35:25;97827.94;;;18.62;79.92
19884;BME280;10104;50.732;10.174;2023-05-23T08:37:47;97817.22;;;18.95;76.81
19884;BME280;10104;50.732;10.174;2023-05-23T08:40:13;97831.78;;;19.33;76.97
19884;BME280;10104;50.732;10.174;2023-05-23T08:42:35;97832.31;;;19.30;75.49
19884;BME280;10104;50.732;10.174;2023-05-23T08:44:56;97829.16;;;19.50;74.13
19884;BME280;10104;50.732;10.174;2023-05-23T08:47:18;97824.75;;;19.82;73.14
19884;BME280;10104;50.732;10.174;2023-05-23T08:49:40;97834.38;;;20.22;74.64
19884;BME280;10104;50.732;10.174;2023-05-23T08:52:02;97831.09;;;20.36;74.16
19884;BME280;10104;50.732;10.174;2023-05-23T08:54:24;97832.06;;;20.30;70.44
19884;BME280;10104;50.732;10.174;2023-05-23T08:56:46;97830.63;;;20.44;72.10
19884;BME280;10104;50.732;10.174;2023-05-23T08:59:08;97831.56;;;20.55;69.44
19884;BME280;10104;50.732;10.174;2023-05-23T09:01:31;97832.16;;;20.62;68.50
19884;BME280;10104;50.732;10.174;2023-05-23T09:03:55;97833.91;;;20.46;68.07
19884;BME280;10104;50.732;10.174;2023-05-23T09:06:20;97833.03;;;20.68;66.42
19884;BME280;10104;50.732;10.174;2023-05-23T09:08:42;97827.34;;;20.91;67.47
19884;BME280;10104;50.732;10.174;2023-05-23T09:11:06;97832.38;;;20.82;67.68
19884;BME280;10104;50.732;10.174;2023-05-23T09:13:29;97838.41;;;20.68;66.98
19884;BME280;10104;50.732;10.174;2023-05-23T09:16:02;97839.94;;;20.58;69.19
19884;BME280;10104;50.732;10.174;2023-05-23T09:18:25;97842.22;;;20.72;68.61
19884;BME280;10104;50.732;10.174;2023-05-23T09:20:47;97844.47;;;20.53;67.45
19884;BME280;10104;50.732;10.174;2023-05-23T09:23:08;97847.47;;;20.35;69.03
19884;BME280;10104;50.732;10.174;2023-05-23T09:25:37;97851.84;;;20.41;69.36
19884;BME280;10104;50.732;10.174;2023-05-23T09:28:06;97851.34;;;20.22;70.62
19884;BME280;10104;50.732;10.174;2023-05-23T09:30:27;97858.34;;;19.46;71.30
19884;BME280;10104;50.732;10.174;2023-05-23T09:32:58;97865.66;;;19.17;74.42
19884;BME280;10104;50.732;10.174;2023-05-23T09:35:27;97868.88;;;18.86;76.28
19884;BME280;10104;50.732;10.174;2023-05-23T09:37:48;97870.94;;;18.67;76.79
19884;BME280;10104;50.732;10.174;2023-05-23T09:40:11;97875.72;;;18.65;77.72
19884;BME280;10104;50.732;10.174;2023-05-23T09:42:35;97872.66;;;18.73;77.82
19884;BME280;10104;50.732;10.174;2023-05-23T09:44:57;97873.25;;;18.75;78.30
19884;BME280;10104;50.732;10.174;2023-05-23T09:47:18;97863.78;;;19.18;76.39
19884;BME280;10104;50.732;10.174;2023-05-23T09:49:45;97858.16;;;19.69;71.15
19884;BME280;10104;50.732;10.174;2023-05-23T09:52:07;97873.66;;;19.62;72.87
19884;BME280;10104;50.732;10.174;2023-05-23T09:54:28;97866.31;;;19.41;73.64
19884;BME280;10104;50.732;10.174;2023-05-23T09:56:52;97862.81;;;19.24;76.50
19884;BME280;10104;50.732;10.174;2023-05-23T09:59:14;97857.59;;;19.17;74.89
19884;BME280;10104;50.732;10.174;2023-05-23T10:01:36;97870.00;;;18.90;78.08
19884;BME280;10104;50.732;10.174;2023-05-23T10:03:58;97874.59;;;18.61;78.19
19884;BME280;10104;50.732;10.174;2023-05-23T10:09:05;97878.69;;;18.12;81.49
19884;BME280;10104;50.732;10.174;2023-05-23T10:13:58;97881.59;;;17.99;83.54
19884;BME280;10104;50.732;10.174;2023-05-23T10:16:29;97878.81;;;17.94;83.89
19884;BME280;10104;50.732;10.174;2023-05-23T10:18:56;97890.34;;;18.06;84.04
19884;BME280;10104;50.732;10.174;2023-05-23T10:21:23;97893.03;;;17.94;83.21
19884;BME280;10104;50.732;10.174;2023-05-23T10:23:49;97889.19;;;18.02;84.07
19884;BME280;10104;50.732;10.174;2023-05-23T10:26:10;97886.59;;;18.18;83.32
19884;BME280;10104;50.732;10.174;2023-05-23T10:28:32;97885.84;;;18.35;82.74
19884;BME280;10104;50.732;10.174;2023-05-23T10:30:54;97894.16;;;18.10;80.75
19884;BME280;10104;50.732;10.174;2023-05-23T10:33:16;97893.25;;;18.04;84.43
19884;BME280;10104;50.732;10.174;2023-05-23T10:35:52;97898.03;;;18.14;81.77
19884;BME280;10104;50.732;10.174;2023-05-23T10:38:21;97897.47;;;18.00;83.01
19884;BME280;10104;50.732;10.174;2023-05-23T10:43:24;97899.78;;;17.50;83.91
19884;BME280;10104;50.732;10.174;2023-05-23T10:45:47;97902.06;;;17.35;85.60
19884;BME280;10104;50.732;10.174;2023-05-23T10:48:20;97912.53;;;17.25;87.47
19884;BME280;10104;50.732;10.174;2023-05-23T10:50:45;97912.38;;;17.08;86.82
19884;BME280;10104;50.732;10.174;2023-05-23T10:53:22;97921.78;;;16.99;88.29
19884;BME280;10104;50.732;10.174;2023-05-23T10:55:47;97925.13;;;16.94;89.45
19884;BME280;10104;50.732;10.174;2023-05-23T10:58:16;97931.94;;;17.09;86.29
19884;BME280;10104;50.732;10.174;2023-05-23T11:00:50;97928.56;;;17.13;86.86
19884;BME280;10104;50.732;10.174;2023-05-23T11:03:12;97932.88;;;17.14;85.33
19884;BME280;10104;50.732;10.174;2023-05-23T11:05:34;97933.13;;;17.24;85.62
19884;BME280;10104;50.732;10.174;2023-05-23T11:08:11;97937.31;;;17.20;84.32
19884;BME280;10104;50.732;10.174;2023-05-23T11:11:00;97935.00;;;17.24;85.83
19884;BME280;10104;50.732;10.174;2023-05-23T11:13:22;97935.09;;;17.29;84.72
19884;BME280;10104;50.732;10.174;2023-05-23T11:15:44;97932.34;;;17.35;84.69
19884;BME280;10104;50.732;10.174;2023-05-23T11:18:06;97932.53;;;17.22;85.73
19884;BME280;10104;50.732;10.174;2023-05-23T11:20:29;97940.53;;;17.11;85.05
19884;BME280;10104;50.732;10.174;2023-05-23T11:22:59;97936.22;;;17.10;85.34
19884;BME280;10104;50.732;10.174;2023-05-23T11:25:38;97940.66;;;17.16;86.29
19884;BME280;10104;50.732;10.174;2023-05-23T11:28:03;97943.03;;;16.94;87.18
19884;BME280;10104;50.732;10.174;2023-05-23T11:30:27;97958.31;;;16.75;87.36
19884;BME280;10104;50.732;10.174;2023-05-23T11:32:53;97955.66;;;16.75;88.67
19884;BME280;10104;50.732;10.174;2023-05-23T11:35:16;97958.47;;;16.62;89.98
19884;BME280;10104;50.732;10.174;2023-05-23T11:37:38;97954.97;;;16.43;90.30
19884;BME280;10104;50.732;10.174;2023-05-23T11:42:47;97967.59;;;16.18;92.36
19884;BME280;10104;50.732;10.174;2023-05-23T11:45:08;97966.44;;;15.89;92.84
19884;BME280;10104;50.732;10.174;2023-05-23T11:47:30;97975.84;;;15.73;93.74
19884;BME280;10104;50.732;10.174;2023-05-23T11:49:52;97971.75;;;15.71;94.53
19884;BME280;10104;50.732;10.174;2023-05-23T11:52:14;97971.97;;;15.69;95.96
19884;BME280;10104;50.732;10.174;2023-05-23T11:54:35;97980.09;;;15.50;94.90
19884;BME280;10104;50.732;10.174;2023-05-23T11:56:57;97978.56;;;15.67;95.17
19884;BME280;10104;50.732;10.174;2023-05-23T11:59:25;97981.19;;;15.73;94.76
19884;BME280;10104;50.732;10.174;2023-05-23T12:01:47;97980.78;;;15.95;93.48
19884;BME280;10104;50.732;10.174;2023-05-23T12:04:09;97985.75;;;15.91;92.91
19884;BME280;10104;50.732;10.174;2023-05-23T12:06:34;97991.22;;;15.78;93.18
19884;BME280;10104;50.732;10.174;2023-05-23T12:08:58;97998.81;;;15.74;93.78
19884;BME280;10104;50.732;10.174;2023-05-23T12:11:19;97996.28;;;15.61;92.65
19884;BME280;10104;50.732;10.174;2023-05-23T12:13:42;98004.66;;;15.65;93.48
19884;BME280;10104;50.732;10.174;2023-05-23T12:16:05;98005.75;;;15.51;92.82
19884;BME280;10104;50.732;10.174;2023-05-23T12:18:28;98011.28;;;15.56;93.55
19884;BME280;10104;50.732;10.174;2023-05-23T12:20:50;98014.78;;;15.56;93.96
19884;BME280;10104;50.732;10.174;2023-05-23T12:23:20;98016.72;;;15.43;92.10
19884;BME280;10104;50.732;10.174;2023-05-23T12:25:42;98013.66;;;15.39;92.60
19884;BME280;10104;50.732;10.174;2023-05-23T12:28:04;98014.41;;;15.46;92.59
19884;BME280;10104;50.732;10.174;2023-05-23T12:30:26;98016.25;;;15.52;92.26
19884;BME280;10104;50.732;10.174;2023-05-23T12:32:47;98018.72;;;15.47;89.64
19884;BME280;10104;50.732;10.174;2023-05-23T12:35:10;98025.44;;;15.56;90.33
19884;BME280;10104;50.732;10.174;2023-05-23T12:37:33;98018.59;;;15.35;88.77
19884;BME280;10104;50.732;10.174;2023-05-23T12:39:55;98019.75;;;15.53;87.94
19884;BME280;10104;50.732;10.174;2023-05-23T12:42:17;98016.63;;;15.81;87.62
19884;BME280;10104;50.732;10.174;2023-05-23T12:44:40;98026.50;;;15.80;86.10